Time;durP1;ratioP1;P1;durP2;ratioP2;P2;SDS_P1;SDS_P2;PMS_P1;PMS_P2;Temp;Humidity;BMP_temperature;BMP_pressure;BME280_temperature;BME280_humidity;BME280_pressure;Samples;Min_cycle;Max_cycle;Signal;HPM_P1;HPM_P2
2021/11/15 00:01:11;;;;;;;21.42;15.18;;;10.30;99.90;;;;;;5057643;28;20052;-86
2021/11/15 00:03:37;;;;;;;;;;;10.30;99.90;;;;;;5078359;28;20020;-86
2021/11/15 00:06:06;;;;;;;22.58;14.48;;;10.30;99.90;;;;;;5047256;28;20316;-86
2021/11/15 00:08:32;;;;;;;22.13;15.13;;;10.20;99.90;;;;;;5040914;28;20021;-87
2021/11/15 00:10:57;;;;;;;21.25;15.68;;;10.20;99.90;;;;;;5043260;28;20055;-86
2021/11/15 00:13:28;;;;;;;25.55;16.48;;;10.20;99.90;;;;;;5043197;28;20040;-86
2021/11/15 00:15:54;;;;;;;;;;;10.20;99.90;;;;;;5050992;28;20024;-86
2021/11/15 00:18:23;;;;;;;20.52;14.65;;;10.20;99.90;;;;;;5056786;28;19908;-85
2021/11/15 00:20:51;;;;;;;21.85;15.70;;;10.20;99.90;;;;;;5065477;28;20055;-86
2021/11/15 00:23:17;;;;;;;20.67;14.05;;;10.20;99.90;;;;;;5073013;28;20020;-86
2021/11/15 00:25:46;;;;;;;26.05;17.30;;;10.10;99.90;;;;;;5042191;28;20086;-86
2021/11/15 00:28:14;;;;;;;21.02;15.75;;;10.10;99.90;;;;;;5041622;28;20028;-86
2021/11/15 00:30:42;;;;;;;23.63;15.90;;;10.20;99.90;;;;;;5061469;28;20024;-86
2021/11/15 00:33:08;;;;;;;22.55;15.35;;;10.20;99.90;;;;;;5046952;28;20040;-85
2021/11/15 00:35:34;;;;;;;20.50;14.45;;;10.20;99.90;;;;;;5045604;28;20016;-86
2021/11/15 00:38:04;;;;;;;22.17;15.90;;;10.20;99.90;;;;;;5049131;28;20033;-86
2021/11/15 00:40:39;;;;;;;23.30;16.10;;;10.20;99.90;;;;;;5044460;28;20025;-86
2021/11/15 00:43:07;;;;;;;23.80;16.33;;;10.20;99.90;;;;;;5059576;28;20020;-84
2021/11/15 00:45:34;;;;;;;22.80;15.27;;;10.20;99.90;;;;;;5040798;28;20031;-84
2021/11/15 00:48:00;;;;;;;21.33;14.75;;;10.20;99.90;;;;;;5058064;28;20521;-84
2021/11/15 00:50:26;;;;;;;22.83;16.33;;;10.20;99.90;;;;;;5055146;28;20020;-85
2021/11/15 00:52:53;;;;;;;22.77;15.20;;;10.10;99.90;;;;;;5052408;28;20036;-85
2021/11/15 00:55:19;;;;;;;20.35;15.32;;;10.20;99.90;;;;;;5053788;28;20082;-85
2021/11/15 00:57:47;;;;;;;23.83;15.93;;;10.10;99.90;;;;;;5053919;28;20063;-86
2021/11/15 01:00:17;;;;;;;21.48;14.85;;;10.20;99.90;;;;;;5039880;28;20025;-87
2021/11/15 01:02:43;;;;;;;21.33;14.63;;;10.10;99.90;;;;;;5056106;28;20025;-87
2021/11/15 01:05:17;;;;;;;18.77;14.30;;;10.20;99.90;;;;;;5043056;28;20024;-86
2021/11/15 01:07:43;;;;;;;19.90;14.23;;;10.20;99.90;;;;;;5063542;28;20063;-81
2021/11/15 01:10:15;;;;;;;21.52;14.85;;;10.10;99.90;;;;;;5021741;28;20020;-81
2021/11/15 01:12:41;;;;;;;21.90;14.23;;;10.10;99.90;;;;;;5075736;28;20031;-81
2021/11/15 01:15:11;;;;;;;20.15;13.90;;;10.10;99.90;;;;;;5077154;28;20166;-81
2021/11/15 01:17:38;;;;;;;21.40;14.43;;;10.10;99.90;;;;;;5081847;28;20102;-81
2021/11/15 01:20:07;;;;;;;22.55;14.68;;;10.10;99.90;;;;;;5059799;28;20016;-81
2021/11/15 01:22:33;;;;;;;20.13;12.93;;;10.10;99.90;;;;;;5076978;28;20035;-81
2021/11/15 01:24:59;;;;;;;18.80;13.48;;;10.10;99.90;;;;;;5059892;28;20087;-81
2021/11/15 01:27:25;;;;;;;21.27;14.50;;;10.10;99.90;;;;;;5057119;28;20462;-81
2021/11/15 01:29:51;;;;;;;21.50;14.23;;;10.10;99.90;;;;;;5057966;28;20029;-81
2021/11/15 01:32:25;;;;;;;19.63;13.95;;;10.10;99.90;;;;;;5069579;28;20100;-81
2021/11/15 01:34:51;;;;;;;21.42;14.30;;;10.10;99.90;;;;;;5057137;28;20039;-84
2021/11/15 01:37:20;;;;;;;18.17;13.52;;;10.10;99.90;;;;;;5034565;28;20009;-85
2021/11/15 01:39:45;;;;;;;21.48;14.05;;;10.10;99.90;;;;;;5069609;28;20031;-85
2021/11/15 01:42:14;;;;;;;19.00;13.50;;;10.00;99.90;;;;;;5060026;28;20026;-84
2021/11/15 01:44:40;;;;;;;20.92;14.82;;;10.00;99.90;;;;;;5056965;28;20473;-85
2021/11/15 01:47:12;;;;;;;20.75;14.45;;;10.00;99.90;;;;;;5045901;28;20027;-84
2021/11/15 01:49:38;;;;;;;22.02;15.15;;;10.00;99.90;;;;;;5047904;28;20035;-85
2021/11/15 01:52:07;;;;;;;22.23;15.48;;;10.00;99.90;;;;;;5042427;28;20537;-84
2021/11/15 01:54:36;;;;;;;19.33;14.30;;;10.00;99.90;;;;;;5073551;28;20039;-85
2021/11/15 01:57:02;;;;;;;21.60;14.75;;;10.00;99.90;;;;;;5056587;28;20492;-85
2021/11/15 01:59:27;;;;;;;20.60;14.52;;;10.00;99.90;;;;;;5056927;28;20021;-85
2021/11/15 02:01:53;;;;;;;21.35;15.52;;;10.00;99.90;;;;;;5074671;28;20082;-85
2021/11/15 02:04:20;;;;;;;24.42;15.90;;;9.90;99.90;;;;;;5036808;28;20029;-84
2021/11/15 02:06:48;;;;;;;22.52;14.95;;;9.90;99.90;;;;;;5075446;28;20039;-84
2021/11/15 02:09:14;;;;;;;22.33;15.60;;;9.90;99.90;;;;;;5043971;28;20081;-84
2021/11/15 02:11:40;;;;;;;24.00;15.27;;;9.90;99.90;;;;;;5066632;28;20044;-84
2021/11/15 02:14:06;;;;;;;21.92;16.27;;;9.90;99.90;;;;;;5056520;28;20036;-84
2021/11/15 02:16:33;;;;;;;22.48;16.00;;;9.90;99.90;;;;;;5056517;28;20017;-85
2021/11/15 02:19:02;;;;;;;25.77;16.65;;;9.90;99.90;;;;;;5020559;28;20471;-84
2021/11/15 02:21:28;;;;;;;22.90;15.52;;;9.90;99.90;;;;;;5070207;28;20024;-84
2021/11/15 02:23:54;;;;;;;23.02;16.60;;;9.90;99.90;;;;;;5036421;28;20155;-85
2021/11/15 02:26:22;;;;;;;22.80;16.42;;;9.90;99.90;;;;;;5052605;28;20083;-85
2021/11/15 02:29:00;;;;;;;25.50;17.67;;;9.90;99.90;;;;;;5059458;28;20094;-84
2021/11/15 02:31:31;;;;;;;24.92;17.17;;;9.90;99.90;;;;;;5056011;28;20025;-84
2021/11/15 02:34:03;;;;;;;26.50;18.27;;;9.90;99.90;;;;;;5046652;28;20030;-85
2021/11/15 02:36:29;;;;;;;26.00;17.40;;;9.80;99.90;;;;;;5046018;28;20027;-84
2021/11/15 02:38:56;;;;;;;24.85;17.27;;;9.80;99.90;;;;;;5039763;28;20029;-84
2021/11/15 02:41:23;;;;;;;27.20;17.70;;;9.80;99.90;;;;;;5060740;28;20025;-85
2021/11/15 02:43:50;;;;;;;24.42;17.02;;;9.80;99.90;;;;;;5029713;28;20033;-84
2021/11/15 02:46:16;;;;;;;25.42;17.38;;;9.80;99.90;;;;;;5020996;28;20021;-84
2021/11/15 02:48:42;;;;;;;27.30;18.77;;;9.80;99.90;;;;;;5071987;28;20087;-85
2021/11/15 02:51:08;;;;;;;24.75;16.83;;;9.80;99.90;;;;;;5057829;28;20031;-84
2021/11/15 02:53:34;;;;;;;24.25;17.02;;;9.80;99.90;;;;;;5050781;28;20055;-84
2021/11/15 02:56:03;;;;;;;24.75;17.23;;;9.70;99.90;;;;;;5039651;28;20431;-84
2021/11/15 02:58:29;;;;;;;25.95;17.15;;;9.70;99.90;;;;;;5055731;28;20024;-84
2021/11/15 03:01:07;;;;;;;25.17;17.45;;;9.70;99.90;;;;;;5055814;28;20397;-84
2021/11/15 03:03:33;;;;;;;24.70;17.35;;;9.70;99.90;;;;;;5073586;28;20031;-84
2021/11/15 03:05:59;;;;;;;26.10;17.98;;;9.70;99.90;;;;;;5039205;28;20029;-85
2021/11/15 03:08:26;;;;;;;26.75;18.02;;;9.70;99.90;;;;;;5069643;28;20023;-84
2021/11/15 03:10:58;;;;;;;27.30;18.13;;;9.70;99.90;;;;;;5055486;28;20397;-84
2021/11/15 03:13:25;;;;;;;24.80;17.20;;;9.70;99.90;;;;;;5086234;28;20024;-84
2021/11/15 03:15:52;;;;;;;26.38;17.10;;;9.70;99.90;;;;;;5070447;28;20481;-84
2021/11/15 03:18:39;;;;;;;25.95;17.52;;;9.70;99.90;;;;;;5062216;28;20100;-84
2021/11/15 03:21:09;;;;;;;26.20;17.92;;;9.80;99.90;;;;;;5055193;28;20025;-84
2021/11/15 03:23:38;;;;;;;24.27;16.60;;;9.70;99.90;;;;;;5061601;28;20020;-85
2021/11/15 03:26:05;;;;;;;26.30;17.85;;;9.70;99.90;;;;;;5070450;28;20070;-85
2021/11/15 03:28:33;;;;;;;26.25;18.92;;;9.70;99.90;;;;;;5064867;28;20029;-85
2021/11/15 03:31:05;;;;;;;26.90;18.48;;;9.70;99.90;;;;;;5058102;28;20040;-85
2021/11/15 03:33:33;;;;;;;25.15;17.85;;;9.70;99.90;;;;;;5089161;28;20028;-85
2021/11/15 03:35:59;;;;;;;27.25;18.08;;;9.70;99.90;;;;;;5062648;28;20112;-85
2021/11/15 03:38:26;;;;;;;28.23;19.83;;;9.70;99.90;;;;;;5038858;28;20120;-85
2021/11/15 03:40:52;;;;;;;32.00;20.92;;;9.70;99.90;;;;;;5055337;28;20477;-85
2021/11/15 03:43:18;;;;;;;29.75;19.77;;;9.70;99.90;;;;;;5055212;28;20119;-84
2021/11/15 03:45:44;;;;;;;29.48;20.70;;;9.70;99.90;;;;;;5045330;28;20032;-85
2021/11/15 03:48:11;;;;;;;31.33;21.27;;;9.70;99.90;;;;;;5075646;28;20485;-85
2021/11/15 03:50:38;;;;;;;31.48;21.27;;;9.70;99.90;;;;;;5056589;28;20025;-85
2021/11/15 03:53:07;;;;;;;32.03;22.05;;;9.70;99.90;;;;;;5055405;28;20447;-85
2021/11/15 03:55:33;;;;;;;33.97;22.50;;;9.70;99.90;;;;;;5086026;28;20017;-84
2021/11/15 03:57:59;;;;;;;34.90;23.60;;;9.70;99.90;;;;;;5073211;28;20039;-85
2021/11/15 04:00:28;;;;;;;32.63;22.48;;;9.60;99.90;;;;;;5053236;28;20032;-85
2021/11/15 04:03:00;;;;;;;30.50;22.02;;;9.60;99.90;;;;;;5077720;28;20016;-85
2021/11/15 04:05:31;;;;;;;31.65;21.25;;;9.60;99.90;;;;;;5082808;28;20055;-85
2021/11/15 04:08:00;;;;;;;31.27;21.42;;;9.60;99.90;;;;;;5045826;28;20024;-84
2021/11/15 04:10:41;;;;;;;34.03;22.60;;;9.60;99.90;;;;;;5042249;28;20024;-85
2021/11/15 04:13:19;;;;;;;;;;;9.50;99.90;;;;;;5057197;28;20029;-85
2021/11/15 04:15:47;;;;;;;32.95;21.60;;;9.50;99.90;;;;;;5050511;28;20354;-84
2021/11/15 04:18:15;;;;;;;35.05;23.05;;;9.50;99.90;;;;;;5050554;28;20119;-84
2021/11/15 04:20:42;;;;;;;30.45;21.40;;;9.50;99.90;;;;;;5072284;28;20020;-85
2021/11/15 04:23:09;;;;;;;34.20;22.55;;;9.50;99.90;;;;;;5072792;28;20024;-85
2021/11/15 04:25:35;;;;;;;34.13;22.40;;;9.50;99.90;;;;;;5070306;28;20078;-81
2021/11/15 04:28:00;;;;;;;30.83;21.40;;;9.50;99.90;;;;;;5074191;28;20028;-81
2021/11/15 04:30:31;;;;;;;32.92;22.08;;;9.40;99.90;;;;;;5051347;28;20093;-81
2021/11/15 04:33:02;;;;;;;32.30;22.42;;;9.50;99.90;;;;;;5081215;28;20071;-87
2021/11/15 04:35:29;;;;;;;30.83;21.75;;;9.50;99.90;;;;;;5065506;28;20042;-86
2021/11/15 04:37:55;;;;;;;35.20;23.23;;;9.50;99.90;;;;;;5074183;28;20020;-86
2021/11/15 04:40:22;;;;;;;31.80;21.48;;;9.50;99.90;;;;;;5039205;28;20070;-86
2021/11/15 04:42:47;;;;;;;34.85;23.13;;;9.50;99.90;;;;;;5031517;28;20470;-86
2021/11/15 04:45:13;;;;;;;34.58;23.55;;;9.50;99.90;;;;;;5054825;28;20020;-86
2021/11/15 04:47:40;;;;;;;31.20;21.45;;;9.50;99.90;;;;;;5070560;28;20021;-86
2021/11/15 04:50:07;;;;;;;32.95;22.58;;;9.50;99.90;;;;;;5074539;28;20027;-86
2021/11/15 04:52:33;;;;;;;33.42;23.10;;;9.50;99.90;;;;;;5078491;28;20020;-85
2021/11/15 04:55:19;;;;;;;32.70;21.95;;;9.50;99.90;;;;;;5084547;28;20020;-86
2021/11/15 04:57:46;;;;;;;32.30;22.02;;;9.50;99.90;;;;;;5058546;28;20035;-86
2021/11/15 05:00:18;;;;;;;34.65;22.08;;;9.50;99.90;;;;;;5058428;28;20040;-86
2021/11/15 05:02:48;;;;;;;31.83;21.50;;;9.40;99.90;;;;;;5076366;28;20103;-86
2021/11/15 05:05:15;;;;;;;31.65;22.08;;;9.40;99.90;;;;;;5046297;28;20115;-86
2021/11/15 05:07:42;;;;;;;29.60;21.48;;;9.40;99.90;;;;;;5058289;28;20037;-84
2021/11/15 05:10:08;;;;;;;29.13;20.88;;;9.40;99.90;;;;;;5058059;28;20021;-84
2021/11/15 05:12:35;;;;;;;29.00;21.25;;;9.40;99.90;;;;;;5057767;28;20047;-84
2021/11/15 05:15:14;;;;;;;31.73;21.52;;;9.40;99.90;;;;;;5055879;28;20025;-84
2021/11/15 05:17:41;;;;;;;30.05;21.25;;;9.40;99.90;;;;;;5030554;28;20017;-84
2021/11/15 05:20:08;;;;;;;28.45;20.25;;;9.40;99.90;;;;;;5075931;28;20021;-84
2021/11/15 05:22:35;;;;;;;30.80;20.05;;;9.40;99.90;;;;;;5093055;28;20078;-84
2021/11/15 05:25:01;;;;;;;29.30;21.08;;;9.40;99.90;;;;;;5073967;28;20442;-84
2021/11/15 05:27:27;;;;;;;29.77;21.80;;;9.40;99.90;;;;;;5034713;28;20558;-84
2021/11/15 05:29:53;;;;;;;30.25;20.95;;;9.30;99.90;;;;;;5054442;28;20021;-84
2021/11/15 05:32:18;;;;;;;28.85;20.52;;;9.40;99.90;;;;;;5055881;28;20112;-84
2021/11/15 05:34:44;;;;;;;29.33;20.52;;;9.30;99.90;;;;;;5057866;28;20111;-85
2021/11/15 05:37:11;;;;;;;27.10;19.10;;;9.30;99.90;;;;;;5073588;28;20119;-84
2021/11/15 05:39:37;;;;;;;29.38;19.33;;;9.40;99.90;;;;;;5077253;28;20012;-84
2021/11/15 05:42:03;;;;;;;27.85;20.02;;;9.40;99.90;;;;;;5047029;28;20086;-84
2021/11/15 05:44:29;;;;;;;28.02;20.38;;;9.30;99.90;;;;;;5063480;28;20111;-85
2021/11/15 05:46:55;;;;;;;28.58;20.05;;;9.40;99.90;;;;;;5057367;28;20035;-84
2021/11/15 05:49:21;;;;;;;28.40;19.70;;;9.40;99.90;;;;;;5071457;28;20024;-84
2021/11/15 05:51:46;;;;;;;32.13;22.00;;;9.30;99.90;;;;;;5040780;28;20086;-84
2021/11/15 05:54:12;;;;;;;31.00;21.48;;;9.30;99.90;;;;;;5055452;28;20039;-84
2021/11/15 05:56:38;;;;;;;31.13;21.10;;;9.30;99.90;;;;;;4972845;28;20024;-84
2021/11/15 05:59:04;;;;;;;29.23;20.00;;;9.30;99.90;;;;;;5060552;28;20473;-84
2021/11/15 06:01:29;;;;;;;29.90;20.33;;;9.30;99.90;;;;;;5057688;28;20063;-85
2021/11/15 06:03:55;;;;;;;29.30;20.27;;;9.30;99.90;;;;;;5057279;28;20023;-85
2021/11/15 06:06:21;;;;;;;28.02;19.40;;;9.30;99.90;;;;;;5060993;28;20444;-85
2021/11/15 06:08:48;;;;;;;30.38;20.88;;;9.30;99.90;;;;;;5060834;28;20028;-85
2021/11/15 06:11:13;;;;;;;30.08;20.98;;;9.30;99.90;;;;;;5057858;28;20529;-80
2021/11/15 06:13:39;;;;;;;30.95;20.63;;;9.30;99.90;;;;;;5052790;28;20029;-81
2021/11/15 06:16:05;;;;;;;32.45;21.00;;;9.30;99.90;;;;;;5075987;28;20031;-80
2021/11/15 06:18:36;;;;;;;31.40;21.75;;;9.30;99.90;;;;;;5050657;28;20119;-80
2021/11/15 06:21:02;;;;;;;;;;;9.30;99.90;;;;;;5056458;28;20497;-80
2021/11/15 06:23:28;;;;;;;29.38;20.13;;;9.30;99.90;;;;;;5053318;28;19947;-80
2021/11/15 06:25:53;;;;;;;28.83;20.50;;;9.30;99.90;;;;;;5051873;28;20031;-86
2021/11/15 06:28:19;;;;;;;27.85;18.85;;;9.30;99.90;;;;;;5032293;28;20039;-86
2021/11/15 06:30:45;;;;;;;28.83;20.00;;;9.30;99.90;;;;;;5050966;28;20025;-85
2021/11/15 06:33:11;;;;;;;29.30;20.55;;;9.30;99.90;;;;;;5039146;28;20044;-84
2021/11/15 06:35:36;;;;;;;28.95;20.20;;;9.30;99.90;;;;;;5016552;28;20040;-84
2021/11/15 06:38:02;;;;;;;31.10;20.10;;;9.30;99.90;;;;;;5020398;28;20016;-84
2021/11/15 06:40:28;;;;;;;28.30;19.20;;;9.30;99.90;;;;;;5037484;28;20442;-84
2021/11/15 06:42:54;;;;;;;28.70;18.55;;;9.30;99.90;;;;;;5038290;28;20481;-85
2021/11/15 06:45:20;;;;;;;29.20;19.65;;;9.30;99.90;;;;;;5035638;28;20031;-84
2021/11/15 06:47:46;;;;;;;27.08;17.88;;;9.30;99.90;;;;;;5052695;28;20119;-85
2021/11/15 06:50:15;;;;;;;26.30;16.95;;;9.30;99.90;;;;;;5039151;28;20024;-85
2021/11/15 06:52:41;;;;;;;25.63;16.58;;;9.30;99.90;;;;;;5063678;28;20029;-85
2021/11/15 06:55:08;;;;;;;27.45;16.98;;;9.30;99.90;;;;;;5046488;28;20385;-85
2021/11/15 06:57:34;;;;;;;26.42;16.75;;;9.30;99.90;;;;;;5054954;28;20024;-80
2021/11/15 07:00:00;;;;;;;26.73;16.88;;;9.30;99.90;;;;;;5072914;28;20381;-81
2021/11/15 07:02:26;;;;;;;25.90;16.48;;;9.30;99.90;;;;;;5040372;28;20474;-82
2021/11/15 07:04:52;;;;;;;26.70;17.15;;;9.30;99.90;;;;;;5050140;28;20025;-81
2021/11/15 07:07:17;;;;;;;26.33;16.83;;;9.20;99.90;;;;;;5059805;28;20493;-87
2021/11/15 07:09:48;;;;;;;27.13;17.08;;;9.30;99.90;;;;;;5049998;28;20032;-87
2021/11/15 07:12:13;;;;;;;25.87;16.63;;;9.20;99.90;;;;;;5039441;28;20060;-87
2021/11/15 07:14:39;;;;;;;25.77;15.07;;;9.20;99.90;;;;;;5060348;28;20620;-85
2021/11/15 07:17:06;;;;;;;25.08;15.70;;;9.30;99.90;;;;;;5053635;28;20409;-85
2021/11/15 07:19:31;;;;;;;24.58;16.15;;;9.20;99.90;;;;;;5053871;28;20024;-84
2021/11/15 07:21:57;;;;;;;22.88;14.80;;;9.20;99.90;;;;;;5045177;28;20420;-85
2021/11/15 07:24:23;;;;;;;25.25;15.32;;;9.30;99.90;;;;;;5029676;28;20075;-87
2021/11/15 07:27:09;;;;;;;25.17;15.38;;;9.20;99.90;;;;;;5057762;28;20040;-86
2021/11/15 07:29:34;;;;;;;24.65;14.65;;;9.20;99.90;;;;;;5039975;28;20021;-85
2021/11/15 07:32:01;;;;;;;22.30;13.82;;;9.20;99.90;;;;;;5022700;28;20079;-85
2021/11/15 07:34:28;;;;;;;25.48;15.73;;;9.20;99.90;;;;;;5025047;28;20110;-84
2021/11/15 07:36:56;;;;;;;23.77;14.48;;;9.20;99.90;;;;;;5050954;28;20048;-85
2021/11/15 07:39:22;;;;;;;23.38;13.18;;;9.10;99.90;;;;;;5040592;28;20043;-85
2021/11/15 07:41:49;;;;;;;22.50;14.10;;;9.10;99.90;;;;;;5056113;28;20115;-84
2021/11/15 07:44:15;;;;;;;20.45;12.95;;;9.10;99.90;;;;;;5049911;28;20068;-84
2021/11/15 07:46:41;;;;;;;19.23;12.18;;;9.20;99.90;;;;;;5044000;28;20060;-85
2021/11/15 07:49:07;;;;;;;21.35;12.88;;;9.20;99.90;;;;;;5054045;28;20033;-84
2021/11/15 07:51:33;;;;;;;21.50;13.13;;;9.10;99.90;;;;;;5056021;28;20028;-84
2021/11/15 07:53:59;;;;;;;22.25;12.88;;;9.20;99.90;;;;;;5061737;28;20066;-84
2021/11/15 07:56:25;;;;;;;21.35;13.50;;;9.10;99.90;;;;;;5088182;28;20384;-81
2021/11/15 07:58:51;;;;;;;21.10;13.02;;;9.10;99.90;;;;;;5064674;28;20024;-81
2021/11/15 08:01:16;;;;;;;20.95;13.38;;;9.10;99.90;;;;;;5075271;28;20044;-81
2021/11/15 08:03:42;;;;;;;20.20;13.80;;;9.10;99.90;;;;;;5045154;28;20036;-81
2021/11/15 08:06:10;;;;;;;18.60;12.27;;;9.10;99.90;;;;;;5065046;28;20028;-81
2021/11/15 08:08:37;;;;;;;18.15;11.68;;;9.00;99.90;;;;;;5035644;28;20013;-81
2021/11/15 08:11:06;;;;;;;19.83;11.40;;;9.00;99.90;;;;;;5071739;28;20565;-81
2021/11/15 08:13:33;;;;;;;18.92;11.30;;;9.00;99.90;;;;;;5075760;28;20079;-81
2021/11/15 08:15:58;;;;;;;18.30;10.95;;;9.00;99.90;;;;;;5054401;28;20055;-81
2021/11/15 08:18:24;;;;;;;16.00;10.05;;;9.00;99.90;;;;;;5058593;28;20052;-81
2021/11/15 08:20:50;;;;;;;16.15;10.38;;;9.00;99.90;;;;;;5071722;28;20024;-81
2021/11/15 08:23:18;;;;;;;15.23;10.18;;;9.00;99.90;;;;;;5074038;28;20031;-81
2021/11/15 08:26:15;;;;;;;13.93;8.68;;;9.00;99.90;;;;;;5048228;28;20021;-85
2021/11/15 08:28:41;;;;;;;14.82;8.77;;;9.10;99.90;;;;;;5061733;28;20488;-85
2021/11/15 08:31:09;;;;;;;13.00;8.73;;;9.10;99.90;;;;;;5065821;28;20025;-85
2021/11/15 08:33:35;;;;;;;14.52;8.90;;;9.00;99.90;;;;;;5077028;28;20477;-85
2021/11/15 08:36:01;;;;;;;14.48;8.40;;;9.10;99.90;;;;;;5068681;28;20064;-85
2021/11/15 08:38:30;;;;;;;14.52;9.00;;;9.10;99.90;;;;;;5062220;28;20369;-85
2021/11/15 08:40:55;;;;;;;15.35;8.88;;;9.10;99.90;;;;;;5062307;28;20037;-79
2021/11/15 08:43:22;;;;;;;15.27;8.73;;;9.10;99.90;;;;;;5058080;28;20123;-77
2021/11/15 08:45:49;;;;;;;14.98;9.25;;;9.10;99.90;;;;;;5033492;28;20082;-78
2021/11/15 08:48:16;;;;;;;15.98;10.40;;;9.10;99.90;;;;;;5067692;28;20095;-78
2021/11/15 08:50:42;;;;;;;16.63;9.95;;;9.10;99.90;;;;;;5063127;28;20418;-78
2021/11/15 08:53:07;;;;;;;15.88;9.85;;;9.00;99.90;;;;;;5052256;28;20063;-77
2021/11/15 08:55:34;;;;;;;17.23;9.52;;;9.10;99.90;;;;;;5044865;28;20032;-77
2021/11/15 08:58:03;;;;;;;15.63;9.93;;;9.10;99.90;;;;;;5036889;28;20021;-78
2021/11/15 09:00:29;;;;;;;17.63;10.63;;;9.10;99.90;;;;;;5058024;28;20111;-78
2021/11/15 09:02:55;;;;;;;16.08;10.23;;;9.10;99.90;;;;;;5051278;28;20140;-78
2021/11/15 09:05:21;;;;;;;20.38;11.85;;;9.10;99.90;;;;;;5051446;28;20115;-78
2021/11/15 09:07:48;;;;;;;20.42;11.25;;;9.10;99.90;;;;;;5071392;28;20099;-78
2021/11/15 09:10:15;;;;;;;21.45;12.60;;;9.10;99.90;;;;;;5047570;28;20027;-79
2021/11/15 09:12:42;;;;;;;22.05;12.93;;;9.00;99.90;;;;;;5040785;28;20032;-78
2021/11/15 09:15:10;;;;;;;23.05;13.15;;;9.10;99.90;;;;;;5038733;28;20116;-78
2021/11/15 09:17:38;;;;;;;23.90;13.75;;;9.10;99.90;;;;;;5039765;28;20427;-79
2021/11/15 09:20:06;;;;;;;23.25;13.68;;;9.10;99.90;;;;;;5045511;28;20107;-78
2021/11/15 09:22:32;;;;;;;23.00;13.60;;;9.00;99.90;;;;;;5062716;28;20035;-78
2021/11/15 09:24:58;;;;;;;26.65;15.13;;;9.00;99.90;;;;;;5040014;28;20028;-78
2021/11/15 09:27:26;;;;;;;24.23;14.20;;;9.00;99.90;;;;;;5013056;28;20021;-79
2021/11/15 09:29:52;;;;;;;25.52;14.95;;;9.00;99.90;;;;;;5039156;28;20056;-78
2021/11/15 09:32:20;;;;;;;24.67;14.55;;;8.90;99.90;;;;;;5060494;28;20079;-78
2021/11/15 09:34:46;;;;;;;22.55;14.35;;;9.00;99.90;;;;;;5059174;28;20430;-78
2021/11/15 09:37:13;;;;;;;25.65;15.55;;;9.00;99.90;;;;;;5045286;28;20021;-78
2021/11/15 09:39:45;;;;;;;27.80;16.27;;;8.90;99.90;;;;;;5063658;28;20017;-78
2021/11/15 09:42:12;;;;;;;25.60;15.02;;;8.90;99.90;;;;;;5065918;28;20016;-78
2021/11/15 09:44:39;;;;;;;27.42;15.55;;;8.90;99.90;;;;;;5037118;28;20029;-78
2021/11/15 09:47:06;;;;;;;29.27;15.60;;;8.90;99.90;;;;;;5057403;28;20035;-79
2021/11/15 09:49:32;;;;;;;26.17;14.35;;;8.90;99.90;;;;;;5059823;28;20036;-78
2021/11/15 09:52:02;;;;;;;24.17;13.77;;;8.90;99.90;;;;;;5057497;28;20477;-78
2021/11/15 09:54:28;;;;;;;27.80;14.90;;;8.90;99.90;;;;;;5060023;28;20462;-78
2021/11/15 09:56:54;;;;;;;22.98;14.35;;;8.90;99.90;;;;;;5051747;28;20029;-78
2021/11/15 09:59:28;;;;;;;24.17;12.77;;;9.00;99.90;;;;;;5030462;28;20025;-78
2021/11/15 10:01:56;;;;;;;22.60;12.52;;;8.90;99.90;;;;;;5018184;28;20596;-78
2021/11/15 10:04:22;;;;;;;23.13;12.80;;;8.90;99.90;;;;;;5048297;28;20382;-78
2021/11/15 10:06:53;;;;;;;23.38;12.93;;;8.90;99.90;;;;;;5069517;28;20029;-78
2021/11/15 10:09:32;;;;;;;21.95;12.13;;;8.90;99.90;;;;;;5072917;28;20103;-78
2021/11/15 10:12:06;;;;;;;22.50;11.95;;;8.90;99.90;;;;;;5058032;28;20045;-79
2021/11/15 10:14:38;;;;;;;23.40;12.80;;;9.00;99.90;;;;;;5081387;28;20032;-81
2021/11/15 10:17:04;;;;;;;25.20;13.55;;;8.90;99.90;;;;;;5048699;28;20304;-79
2021/11/15 10:19:35;;;;;;;22.40;12.65;;;8.90;99.90;;;;;;5058695;28;20066;-79
2021/11/15 10:22:03;;;;;;;23.65;13.18;;;8.90;99.90;;;;;;5058875;28;20025;-78
2021/11/15 10:24:37;;;;;;;21.10;11.35;;;8.90;99.90;;;;;;5067246;28;20052;-78
2021/11/15 10:27:11;;;;;;;21.48;12.18;;;8.90;99.90;;;;;;5055578;28;20031;-79
2021/11/15 10:29:40;;;;;;;23.20;13.13;;;8.90;99.90;;;;;;5082850;28;20024;-79
2021/11/15 10:32:10;;;;;;;21.48;12.25;;;8.80;99.90;;;;;;5068639;28;20035;-79
2021/11/15 10:34:45;;;;;;;20.50;11.27;;;8.90;99.90;;;;;;5043875;28;20025;-78
2021/11/15 10:37:29;;;;;;;23.50;12.15;;;8.80;99.90;;;;;;5075753;28;20427;-79
2021/11/15 10:40:07;;;;;;;21.23;11.10;;;8.80;99.90;;;;;;5053627;28;20021;-78
2021/11/15 10:42:36;;;;;;;19.65;11.10;;;8.90;99.90;;;;;;5049795;28;20446;-78
2021/11/15 10:45:05;;;;;;;20.48;11.00;;;8.80;99.90;;;;;;5058835;28;20111;-78
2021/11/15 10:47:33;;;;;;;19.75;11.88;;;8.80;99.90;;;;;;5072220;28;20025;-79
2021/11/15 10:53:25;;;;;;;21.35;12.68;;;8.80;99.90;;;;;;5079511;28;20481;-78
2021/11/15 10:56:35;;;;;;;23.45;12.63;;;8.80;99.90;;;;;;5073387;28;20111;-78
2021/11/15 10:59:01;;;;;;;22.13;11.75;;;8.70;99.90;;;;;;5071346;28;20016;-78
2021/11/15 11:01:34;;;;;;;24.08;13.00;;;8.70;99.90;;;;;;5060083;28;20036;-78
2021/11/15 11:04:08;;;;;;;21.35;12.25;;;8.70;99.90;;;;;;5060097;28;20481;-78
2021/11/15 11:06:53;;;;;;;24.35;13.43;;;8.70;99.90;;;;;;5053955;28;20161;-78
2021/11/15 11:09:35;;;;;;;24.33;13.70;;;8.70;99.90;;;;;;5031335;28;20040;-78
2021/11/15 11:12:21;;;;;;;26.00;14.52;;;8.70;99.90;;;;;;5072431;28;20131;-78
2021/11/15 11:14:50;;;;;;;26.35;14.75;;;8.70;99.90;;;;;;5073203;28;20032;-78
2021/11/15 11:17:16;;;;;;;25.75;14.07;;;8.70;99.90;;;;;;5037373;28;20021;-78
2021/11/15 11:20:25;;;;;;;24.65;13.45;;;8.70;99.90;;;;;;5035233;28;20025;-79
2021/11/15 11:23:28;;;;;;;25.17;13.52;;;8.70;99.90;;;;;;5055014;28;20025;-78
2021/11/15 11:25:54;;;;;;;32.95;15.18;;;8.70;99.90;;;;;;5028048;23;20045;-80
2021/11/15 11:28:36;;;;;;;24.42;14.32;;;8.70;99.90;;;;;;5044232;28;20433;-81
2021/11/15 11:31:05;;;;;;;25.23;14.18;;;8.70;99.90;;;;;;5019815;28;20018;-81
2021/11/15 11:33:31;;;;;;;26.15;14.77;;;8.70;99.90;;;;;;5046038;28;20438;-81
2021/11/15 11:36:18;;;;;;;25.50;14.25;;;8.70;99.90;;;;;;5023121;28;20028;-81
2021/11/15 11:38:48;;;;;;;23.83;13.63;;;8.70;99.90;;;;;;5014899;28;20028;-81
2021/11/15 11:41:17;;;;;;;27.30;14.15;;;8.70;99.90;;;;;;5016908;28;20116;-80
2021/11/15 11:43:44;;;;;;;25.10;13.52;;;8.70;99.90;;;;;;5015507;28;20056;-80
2021/11/15 11:46:15;;;;;;;23.80;14.45;;;8.70;99.90;;;;;;5006245;28;20038;-81
2021/11/15 11:48:45;;;;;;;26.40;13.95;;;8.70;99.90;;;;;;5031176;28;20454;-81
2021/11/15 11:51:13;;;;;;;23.55;13.50;;;8.70;99.90;;;;;;5012873;28;20025;-81
2021/11/15 11:53:39;;;;;;;22.67;12.45;;;8.70;99.90;;;;;;5031153;28;20120;-80
2021/11/15 11:56:21;;;;;;;23.92;12.90;;;8.70;99.90;;;;;;5027175;28;20117;-81
2021/11/15 11:58:50;;;;;;;21.05;12.43;;;8.70;99.90;;;;;;5015765;28;20025;-81
2021/11/15 12:01:24;;;;;;;21.02;12.07;;;8.70;99.90;;;;;;5022699;28;20021;-80
2021/11/15 12:04:14;;;;;;;21.05;12.02;;;8.70;99.90;;;;;;5021073;28;20080;-81
2021/11/15 12:06:41;;;;;;;21.75;11.75;;;8.70;99.90;;;;;;5018507;28;20034;-80
2021/11/15 12:09:07;;;;;;;25.05;12.40;;;8.70;99.90;;;;;;5020087;28;20402;-80
2021/11/15 12:11:39;;;;;;;23.58;13.23;;;8.70;99.90;;;;;;4981437;28;20053;-80
2021/11/15 12:14:08;;;;;;;19.95;11.85;;;8.70;99.90;;;;;;5037132;28;20104;-81
2021/11/15 12:17:05;;;;;;;24.60;12.77;;;8.70;99.90;;;;;;5031227;28;20036;-80
2021/11/15 12:19:49;;;;;;;23.67;12.95;;;8.70;99.90;;;;;;5039253;28;20021;-80
2021/11/15 12:22:23;;;;;;;20.95;12.23;;;8.70;99.90;;;;;;5019920;28;20022;-80
2021/11/15 12:25:04;;;;;;;23.77;12.18;;;8.70;99.90;;;;;;5039082;28;20018;-80
2021/11/15 12:27:48;;;;;;;;;;;8.70;99.90;;;;;;5035620;28;20064;-80
2021/11/15 12:30:24;;;;;;;22.67;11.45;;;8.60;99.90;;;;;;5029577;28;19905;-79
2021/11/15 12:33:20;;;;;;;21.27;12.02;;;8.60;99.90;;;;;;5042970;28;20037;-80
2021/11/15 12:36:09;;;;;;;24.17;12.93;;;8.60;99.90;;;;;;5048792;28;20478;-79
2021/11/15 12:38:59;;;;;;;25.35;12.93;;;8.60;99.90;;;;;;5035767;28;20056;-80
2021/11/15 12:41:27;;;;;;;24.58;12.13;;;8.60;99.90;;;;;;5043156;28;20049;-80
2021/11/15 12:44:05;;;;;;;20.42;11.90;;;8.60;99.90;;;;;;5037939;28;20049;-78
2021/11/15 12:46:45;;;;;;;24.40;12.82;;;8.60;99.90;;;;;;5021721;28;20076;-78
2021/11/15 12:49:42;;;;;;;23.83;12.73;;;8.60;99.90;;;;;;5049788;28;20417;-78
2021/11/15 12:54:43;;;;;;;23.60;13.93;;;8.50;99.90;;;;;;5038959;28;20057;-78